Time;durP1;ratioP1;P1;durP2;ratioP2;P2;SDS_P1;SDS_P2;PMS_P1;PMS_P2;Temp;Humidity;BMP_temperature;BMP_pressure;BME280_temperature;BME280_humidity;BME280_pressure;Samples;Min_cycle;Max_cycle;Signal;HPM_P1;HPM_P2
2023/11/21 00:01:09;;;;;;;5.18;2.17;;;;;;;;;;5108101;28;20030;-84
2023/11/21 00:03:55;;;;;;;8.80;3.13;;;;;;;;;;5096736;28;20417;-87
2023/11/21 00:06:40;;;;;;;9.48;3.25;;;;;;;;;;5086842;28;20051;-87
2023/11/21 00:09:26;;;;;;;7.47;3.03;;;;;;;;;;5081415;28;20518;-87
2023/11/21 00:12:11;;;;;;;6.22;2.42;;;;;;;;;;5086805;28;20168;-86
2023/11/21 00:14:57;;;;;;;12.63;2.10;;;;;;;;;;5090270;28;20036;-86
2023/11/21 00:17:42;;;;;;;8.68;2.42;;;;;;;;;;5083992;28;20024;-86
2023/11/21 00:20:28;;;;;;;7.50;3.03;;;;;;;;;;5086036;28;20019;-86
2023/11/21 00:23:13;;;;;;;8.18;2.63;;;;;;;;;;5092667;28;20080;-85
2023/11/21 00:25:58;;;;;;;6.10;2.05;;;;;;;;;;5089921;28;20688;-85
2023/11/21 00:28:43;;;;;;;8.40;2.47;;;;;;;;;;5088041;28;20020;-86
2023/11/21 00:31:30;;;;;;;9.32;2.67;;;;;;;;;;5088480;28;20036;-86
2023/11/21 00:34:16;;;;;;;10.90;2.95;;;;;;;;;;5085760;28;20031;-86
2023/11/21 00:37:02;;;;;;;6.40;2.28;;;;;;;;;;5081142;28;20035;-86
2023/11/21 00:39:47;;;;;;;7.38;2.47;;;;;;;;;;5098491;28;20106;-85
2023/11/21 00:42:33;;;;;;;7.30;2.47;;;;;;;;;;5091408;28;20031;-84
2023/11/21 00:45:18;;;;;;;6.80;2.60;;;;;;;;;;5068698;28;20035;-86
2023/11/21 00:48:04;;;;;;;6.28;2.30;;;;;;;;;;5075974;28;20105;-86
2023/11/21 00:50:50;;;;;;;9.95;2.70;;;;;;;;;;5075595;27;20031;-86
2023/11/21 00:53:35;;;;;;;5.55;2.40;;;;;;;;;;5076606;28;20394;-86
2023/11/21 00:56:20;;;;;;;6.75;2.45;;;;;;;;;;5075317;28;20431;-86
2023/11/21 00:59:06;;;;;;;6.10;1.92;;;;;;;;;;5078089;28;20035;-86
2023/11/21 01:01:53;;;;;;;7.00;2.30;;;;;;;;;;5081653;28;20037;-86
2023/11/21 01:04:38;;;;;;;5.10;2.15;;;;;;;;;;5084036;28;20669;-86
2023/11/21 01:07:24;;;;;;;9.55;2.45;;;;;;;;;;5075989;28;20024;-86
2023/11/21 01:10:09;;;;;;;7.60;2.53;;;;;;;;;;5072532;28;20062;-84
2023/11/21 01:12:55;;;;;;;4.75;1.52;;;;;;;;;;5073881;28;20053;-83
2023/11/21 01:15:40;;;;;;;5.72;1.77;;;;;;;;;;5071338;28;20019;-83
2023/11/21 01:18:25;;;;;;;7.90;2.00;;;;;;;;;;5069829;28;20020;-83
2023/11/21 01:21:22;;;;;;;6.22;2.00;;;;;;;;;;5072553;28;20019;-86
2023/11/21 01:24:17;;;;;;;8.32;2.10;;;;;;;;;;5071101;28;20020;-83
2023/11/21 01:27:02;;;;;;;6.85;2.20;;;;;;;;;;5068245;28;20023;-83
2023/11/21 01:29:47;;;;;;;3.60;2.00;;;;;;;;;;5072397;28;20030;-84
2023/11/21 01:32:32;;;;;;;7.00;1.60;;;;;;;;;;5071679;28;20040;-85
2023/11/21 01:35:18;;;;;;;5.75;1.52;;;;;;;;;;5080999;28;20055;-86
2023/11/21 01:38:03;;;;;;;7.22;2.13;;;;;;;;;;5068590;28;20020;-86
2023/11/21 01:40:49;;;;;;;2.47;1.30;;;;;;;;;;5074940;28;20028;-86
2023/11/21 01:43:34;;;;;;;5.32;1.42;;;;;;;;;;5084038;28;20031;-85
2023/11/21 01:46:20;;;;;;;3.65;1.50;;;;;;;;;;5078218;28;20568;-86
2023/11/21 01:49:05;;;;;;;9.43;2.00;;;;;;;;;;5074594;28;20043;-89
2023/11/21 01:51:51;;;;;;;3.45;1.63;;;;;;;;;;5060948;28;20397;-88
2023/11/21 01:54:37;;;;;;;4.70;1.80;;;;;;;;;;5076997;28;20019;-86
2023/11/21 01:57:22;;;;;;;5.80;2.47;;;;;;;;;;5078248;28;20546;-88
2023/11/21 02:00:16;;;;;;;8.70;1.95;;;;;;;;;;5070288;28;20375;-85
2023/11/21 02:03:02;;;;;;;8.25;2.50;;;;;;;;;;5073771;28;20465;-87
2023/11/21 02:05:47;;;;;;;3.90;1.40;;;;;;;;;;5083472;28;20078;-87
2023/11/21 02:08:32;;;;;;;6.05;1.95;;;;;;;;;;5073605;28;20031;-87
2023/11/21 02:11:19;;;;;;;3.97;1.80;;;;;;;;;;5071545;28;20587;-88
2023/11/21 02:14:07;;;;;;;6.35;2.15;;;;;;;;;;5066276;28;20430;-88
2023/11/21 02:16:53;;;;;;;5.18;1.80;;;;;;;;;;5070038;28;20514;-87
2023/11/21 02:19:38;;;;;;;3.17;1.50;;;;;;;;;;5075425;28;20125;-87
2023/11/21 02:22:26;;;;;;;4.25;1.58;;;;;;;;;;5074193;28;20034;-87
2023/11/21 02:25:11;;;;;;;7.13;1.45;;;;;;;;;;5081680;28;20241;-87
2023/11/21 02:27:59;;;;;;;6.53;1.30;;;;;;;;;;5076443;28;20023;-85
2023/11/21 02:30:44;;;;;;;3.17;1.42;;;;;;;;;;5075205;28;20020;-86
2023/11/21 02:33:29;;;;;;;4.90;1.42;;;;;;;;;;5080149;28;20467;-84
2023/11/21 02:36:15;;;;;;;3.88;1.60;;;;;;;;;;5075898;28;20362;-85
2023/11/21 02:39:00;;;;;;;3.25;1.15;;;;;;;;;;5078600;28;20241;-86
2023/11/21 02:41:45;;;;;;;5.47;1.40;;;;;;;;;;5070491;28;20015;-85
2023/11/21 02:44:31;;;;;;;3.95;1.60;;;;;;;;;;5077938;28;20081;-86
2023/11/21 02:47:16;;;;;;;5.38;1.92;;;;;;;;;;5065023;28;20044;-85
2023/11/21 02:50:01;;;;;;;8.13;1.80;;;;;;;;;;5068976;28;20028;-85
2023/11/21 02:52:46;;;;;;;4.75;1.77;;;;;;;;;;5069496;28;20026;-85
2023/11/21 02:55:34;;;;;;;4.47;1.60;;;;;;;;;;5078100;28;20033;-85
2023/11/21 02:58:19;;;;;;;4.30;1.25;;;;;;;;;;5072619;28;20036;-86
2023/11/21 03:01:05;;;;;;;4.93;1.30;;;;;;;;;;5073790;28;20011;-86
2023/11/21 03:03:55;;;;;;;2.03;1.10;;;;;;;;;;5069594;28;20027;-85
2023/11/21 03:06:40;;;;;;;4.65;0.90;;;;;;;;;;5075520;28;20118;-86
2023/11/21 03:09:26;;;;;;;5.38;1.17;;;;;;;;;;5077131;28;20038;-85
2023/11/21 03:12:12;;;;;;;7.10;1.95;;;;;;;;;;5078397;28;20069;-85
2023/11/21 03:14:57;;;;;;;4.28;1.08;;;;;;;;;;5081547;28;20026;-85
2023/11/21 03:17:42;;;;;;;4.90;1.60;;;;;;;;;;5073540;28;20024;-83
2023/11/21 03:20:27;;;;;;;3.08;1.05;;;;;;;;;;5075264;28;20020;-84
2023/11/21 03:23:13;;;;;;;2.63;1.13;;;;;;;;;;5073894;28;20042;-84
2023/11/21 03:25:59;;;;;;;6.15;1.40;;;;;;;;;;5070683;28;20114;-84
2023/11/21 03:28:46;;;;;;;2.17;1.10;;;;;;;;;;5071066;28;20115;-85
2023/11/21 03:31:31;;;;;;;1.83;1.00;;;;;;;;;;5077837;28;20059;-86
2023/11/21 03:34:23;;;;;;;6.65;1.40;;;;;;;;;;5063994;28;20111;-85
2023/11/21 03:37:08;;;;;;;2.08;1.10;;;;;;;;;;5079563;28;20032;-85
2023/11/21 03:39:55;;;;;;;2.35;1.15;;;;;;;;;;5075669;28;20027;-86
2023/11/21 03:42:40;;;;;;;3.50;1.30;;;;;;;;;;5077650;28;20020;-85
2023/11/21 03:45:25;;;;;;;2.97;1.25;;;;;;;;;;5077171;28;20023;-86
2023/11/21 03:48:11;;;;;;;3.28;1.30;;;;;;;;;;5080889;28;20027;-88
2023/11/21 03:50:57;;;;;;;4.05;1.02;;;;;;;;;;5079012;28;20036;-86
2023/11/21 03:53:42;;;;;;;1.75;1.20;;;;;;;;;;5072143;28;20113;-86
2023/11/21 03:56:27;;;;;;;4.97;1.73;;;;;;;;;;5086434;28;20027;-86
2023/11/21 03:59:13;;;;;;;3.13;1.23;;;;;;;;;;5077786;28;20023;-86
2023/11/21 04:01:58;;;;;;;4.20;1.50;;;;;;;;;;5073323;28;20043;-86
2023/11/21 04:04:44;;;;;;;2.63;1.40;;;;;;;;;;5069924;28;20056;-87
2023/11/21 04:07:29;;;;;;;3.00;1.23;;;;;;;;;;5075734;28;20150;-86
2023/11/21 04:10:15;;;;;;;2.30;1.13;;;;;;;;;;5082054;28;20013;-86
2023/11/21 04:13:00;;;;;;;3.15;1.50;;;;;;;;;;5070702;28;20437;-87
2023/11/21 04:15:46;;;;;;;4.82;1.60;;;;;;;;;;5074368;28;20053;-87
2023/11/21 04:18:31;;;;;;;2.25;1.60;;;;;;;;;;5075022;28;20062;-86
2023/11/21 04:21:16;;;;;;;3.50;1.42;;;;;;;;;;5077775;28;20054;-85
2023/11/21 04:24:01;;;;;;;1.33;0.90;;;;;;;;;;5079208;28;20050;-85
2023/11/21 04:26:47;;;;;;;2.20;1.08;;;;;;;;;;5084799;28;20014;-85
2023/11/21 04:29:32;;;;;;;1.05;0.80;;;;;;;;;;5077467;28;20062;-86
2023/11/21 04:32:17;;;;;;;1.38;0.90;;;;;;;;;;5077069;28;20154;-86
2023/11/21 04:35:03;;;;;;;3.92;1.05;;;;;;;;;;5066616;28;20501;-86
2023/11/21 04:37:50;;;;;;;4.05;1.08;;;;;;;;;;5083443;28;20101;-86
2023/11/21 04:40:36;;;;;;;2.22;0.95;;;;;;;;;;5068341;28;20028;-85
2023/11/21 04:43:21;;;;;;;1.40;0.98;;;;;;;;;;5073236;28;20104;-84
2023/11/21 04:46:06;;;;;;;3.85;1.10;;;;;;;;;;5082295;28;20038;-84
2023/11/21 04:48:52;;;;;;;3.35;1.60;;;;;;;;;;5081524;28;20031;-86
2023/11/21 04:51:37;;;;;;;1.48;1.10;;;;;;;;;;5081504;28;20023;-86
2023/11/21 04:54:22;;;;;;;4.25;1.20;;;;;;;;;;5076883;28;20378;-85
2023/11/21 04:57:08;;;;;;;2.20;0.93;;;;;;;;;;5073239;28;20039;-85
2023/11/21 04:59:53;;;;;;;6.90;1.10;;;;;;;;;;5077017;28;20119;-86
2023/11/21 05:02:39;;;;;;;5.40;0.90;;;;;;;;;;5079281;28;20032;-86
2023/11/21 05:05:25;;;;;;;2.78;0.88;;;;;;;;;;5069862;28;20048;-84
2023/11/21 05:08:10;;;;;;;3.50;1.10;;;;;;;;;;5067267;28;20016;-85
2023/11/21 05:10:55;;;;;;;2.85;1.45;;;;;;;;;;5067741;28;20020;-85
2023/11/21 05:13:40;;;;;;;2.65;1.33;;;;;;;;;;5075901;28;20054;-87
2023/11/21 05:16:27;;;;;;;4.93;1.48;;;;;;;;;;5080127;28;20058;-87
2023/11/21 05:19:12;;;;;;;2.90;1.25;;;;;;;;;;5081862;28;20110;-85
2023/11/21 05:21:58;;;;;;;5.15;1.65;;;;;;;;;;5072578;28;20104;-85
2023/11/21 05:24:44;;;;;;;2.38;0.90;;;;;;;;;;5080756;28;20111;-86
2023/11/21 05:27:30;;;;;;;4.10;1.10;;;;;;;;;;5083062;28;20031;-85
2023/11/21 05:30:15;;;;;;;3.78;1.00;;;;;;;;;;5070283;28;20740;-87
2023/11/21 05:33:01;;;;;;;2.42;1.52;;;;;;;;;;5077511;28;20047;-85
2023/11/21 05:35:48;;;;;;;5.07;1.40;;;;;;;;;;5087767;27;20031;-86
2023/11/21 05:38:33;;;;;;;2.47;1.25;;;;;;;;;;5080202;28;20028;-85
2023/11/21 05:41:18;;;;;;;3.60;1.10;;;;;;;;;;5073078;28;20024;-87
2023/11/21 05:44:04;;;;;;;1.30;0.93;;;;;;;;;;5080556;28;20046;-87
2023/11/21 05:46:50;;;;;;;3.22;1.45;;;;;;;;;;5073075;28;20016;-87
2023/11/21 05:49:36;;;;;;;4.00;1.20;;;;;;;;;;5071576;28;20123;-87
2023/11/21 05:52:21;;;;;;;1.55;0.98;;;;;;;;;;5070181;28;20085;-84
2023/11/21 05:55:09;;;;;;;2.22;1.55;;;;;;;;;;5072174;28;20035;-85
2023/11/21 05:57:54;;;;;;;3.00;1.20;;;;;;;;;;5072493;28;20028;-84
2023/11/21 06:00:39;;;;;;;4.38;1.77;;;;;;;;;;5082493;28;20713;-86
2023/11/21 06:03:25;;;;;;;4.10;1.38;;;;;;;;;;5075672;28;20028;-87
2023/11/21 06:06:10;;;;;;;3.95;1.30;;;;;;;;;;5075454;28;20559;-86
2023/11/21 06:08:56;;;;;;;2.58;1.13;;;;;;;;;;5072627;28;20355;-87
2023/11/21 06:11:44;;;;;;;8.02;1.30;;;;;;;;;;5068828;28;20121;-87
2023/11/21 06:14:35;;;;;;;2.45;1.00;;;;;;;;;;5081769;28;20511;-86
2023/11/21 06:17:20;;;;;;;4.85;1.85;;;;;;;;;;5085258;28;20057;-89
2023/11/21 06:20:09;;;;;;;2.92;1.05;;;;;;;;;;5080873;28;20063;-88
2023/11/21 06:22:54;;;;;;;2.07;1.73;;;;;;;;;;5079975;28;20139;-87
2023/11/21 06:25:42;;;;;;;4.82;1.17;;;;;;;;;;5075725;28;20073;-87
2023/11/21 06:28:27;;;;;;;5.57;0.85;;;;;;;;;;5078414;28;20032;-87
2023/11/21 06:31:14;;;;;;;5.40;0.98;;;;;;;;;;5072863;28;20031;-85
2023/11/21 06:33:59;;;;;;;3.55;1.00;;;;;;;;;;5078200;28;20023;-87
2023/11/21 06:36:45;;;;;;;1.85;1.02;;;;;;;;;;5082315;28;20454;-86
2023/11/21 06:39:30;;;;;;;2.20;0.90;;;;;;;;;;5072541;28;20024;-87
2023/11/21 06:42:15;;;;;;;1.73;1.05;;;;;;;;;;5086443;28;20031;-86
2023/11/21 06:45:03;;;;;;;1.80;1.13;;;;;;;;;;5073774;28;20027;-85
2023/11/21 06:47:49;;;;;;;3.50;1.25;;;;;;;;;;5081014;28;20031;-86
2023/11/21 06:50:34;;;;;;;5.13;1.45;;;;;;;;;;5078799;28;20027;-86
2023/11/21 06:53:19;;;;;;;2.00;1.40;;;;;;;;;;5082888;28;20393;-86
2023/11/21 06:56:05;;;;;;;3.03;1.10;;;;;;;;;;5065060;28;20480;-88
2023/11/21 06:58:53;;;;;;;3.00;1.23;;;;;;;;;;5067706;28;20115;-87
2023/11/21 07:01:41;;;;;;;1.10;1.00;;;;;;;;;;5068972;28;20024;-91
2023/11/21 07:04:26;;;;;;;4.25;1.73;;;;;;;;;;5071686;28;20012;-86
2023/11/21 07:07:11;;;;;;;2.72;1.25;;;;;;;;;;5071178;28;20305;-90
2023/11/21 07:09:57;;;;;;;3.05;1.20;;;;;;;;;;5073124;28;20024;-85
2023/11/21 07:12:42;;;;;;;2.75;1.25;;;;;;;;;;5076715;28;20453;-87
2023/11/21 07:15:28;;;;;;;1.58;1.13;;;;;;;;;;5072210;28;20027;-85
2023/11/21 07:18:13;;;;;;;1.88;1.15;;;;;;;;;;5073410;28;20055;-81
2023/11/21 07:20:58;;;;;;;1.38;1.08;;;;;;;;;;5067682;28;20040;-82
2023/11/21 07:23:43;;;;;;;4.38;1.42;;;;;;;;;;5070248;28;20027;-80
2023/11/21 07:26:29;;;;;;;3.65;1.33;;;;;;;;;;5065327;28;20024;-81
2023/11/21 07:29:14;;;;;;;1.98;1.20;;;;;;;;;;5067504;28;20481;-83
2023/11/21 07:32:00;;;;;;;2.60;1.58;;;;;;;;;;5072085;28;20054;-81
2023/11/21 07:34:45;;;;;;;3.33;1.48;;;;;;;;;;5072437;28;20024;-82
2023/11/21 07:37:30;;;;;;;4.88;1.45;;;;;;;;;;5070130;28;20024;-84
2023/11/21 07:40:16;;;;;;;2.55;1.17;;;;;;;;;;5075279;28;20097;-83
2023/11/21 07:43:02;;;;;;;6.85;1.67;;;;;;;;;;5072451;28;20059;-82
2023/11/21 07:45:47;;;;;;;3.35;1.60;;;;;;;;;;5067455;28;20095;-85
2023/11/21 07:48:32;;;;;;;5.47;1.65;;;;;;;;;;5066687;28;20591;-84
2023/11/21 07:51:18;;;;;;;4.75;2.05;;;;;;;;;;5067995;28;20393;-83
2023/11/21 07:54:03;;;;;;;4.28;1.30;;;;;;;;;;5075489;28;20023;-81
2023/11/21 07:56:48;;;;;;;2.97;1.63;;;;;;;;;;5076987;28;20684;-84
2023/11/21 07:59:34;;;;;;;2.85;1.40;;;;;;;;;;5075600;28;20105;-79
2023/11/21 08:02:19;;;;;;;4.65;1.85;;;;;;;;;;5082670;28;20036;-81
2023/11/21 08:05:06;;;;;;;3.50;1.17;;;;;;;;;;5086419;28;20083;-81
2023/11/21 08:07:52;;;;;;;4.25;1.92;;;;;;;;;;5097828;28;20016;-81
2023/11/21 08:10:37;;;;;;;4.70;1.20;;;;;;;;;;5095743;28;20027;-81
2023/11/21 08:13:23;;;;;;;3.05;1.20;;;;;;;;;;5101432;28;20076;-87
2023/11/21 08:16:08;;;;;;;5.90;1.98;;;;;;;;;;5072546;28;20062;-86
2023/11/21 08:18:54;;;;;;;2.63;1.60;;;;;;;;;;5067880;28;20020;-86
2023/11/21 08:21:40;;;;;;;3.08;1.95;;;;;;;;;;5079842;28;20028;-86
2023/11/21 08:24:25;;;;;;;2.90;1.75;;;;;;;;;;5078588;27;20355;-85
2023/11/21 08:27:11;;;;;;;2.38;1.58;;;;;;;;;;5078621;28;20381;-84
2023/11/21 08:29:57;;;;;;;4.00;2.15;;;;;;;;;;5075617;28;20136;-86
2023/11/21 08:32:42;;;;;;;5.45;1.73;;;;;;;;;;5075956;28;21361;-86
2023/11/21 08:35:27;;;;;;;3.53;1.67;;;;;;;;;;5075241;28;20020;-86
2023/11/21 08:38:13;;;;;;;5.15;1.95;;;;;;;;;;5074269;28;20028;-86
2023/11/21 08:40:58;;;;;;;3.88;1.70;;;;;;;;;;5073577;28;20116;-86
2023/11/21 08:43:44;;;;;;;1.60;1.30;;;;;;;;;;5071718;28;20036;-85
2023/11/21 08:46:29;;;;;;;1.83;1.25;;;;;;;;;;5073536;28;20070;-86
2023/11/21 08:49:15;;;;;;;3.17;1.75;;;;;;;;;;5069852;28;20478;-85
2023/11/21 08:52:00;;;;;;;7.57;2.22;;;;;;;;;;5071425;28;20028;-86
2023/11/21 08:54:45;;;;;;;6.00;2.17;;;;;;;;;;5059309;28;20102;-86
2023/11/21 08:57:31;;;;;;;3.63;1.50;;;;;;;;;;5078099;28;20020;-87
2023/11/21 09:00:19;;;;;;;2.35;1.52;;;;;;;;;;5069210;28;20028;-85
2023/11/21 09:03:08;;;;;;;3.55;1.48;;;;;;;;;;5068510;28;20344;-87
2023/11/21 09:05:53;;;;;;;3.25;1.92;;;;;;;;;;5073646;28;20028;-84
2023/11/21 09:08:38;;;;;;;2.58;1.10;;;;;;;;;;5072779;28;20063;-84
2023/11/21 09:11:25;;;;;;;3.00;1.50;;;;;;;;;;5073582;28;20027;-86
2023/11/21 09:14:12;;;;;;;3.22;1.30;;;;;;;;;;5072438;28;20478;-86
2023/11/21 09:16:57;;;;;;;1.92;1.02;;;;;;;;;;5073874;28;20119;-86
2023/11/21 09:19:50;;;;;;;1.83;1.60;;;;;;;;;;5071413;28;20028;-84
2023/11/21 09:22:35;;;;;;;3.13;1.58;;;;;;;;;;5067057;28;20028;-85
2023/11/21 09:25:21;;;;;;;3.65;1.38;;;;;;;;;;5071668;28;20115;-87
2023/11/21 09:28:09;;;;;;;2.20;1.63;;;;;;;;;;5071593;28;20496;-85
2023/11/21 09:30:54;;;;;;;5.75;1.50;;;;;;;;;;5073603;28;20113;-85
2023/11/21 09:33:40;;;;;;;2.10;1.33;;;;;;;;;;5068426;28;20094;-84
2023/11/21 09:36:30;;;;;;;2.28;1.13;;;;;;;;;;5074728;28;20796;-86
2023/11/21 09:39:15;;;;;;;2.03;1.55;;;;;;;;;;5067033;28;20032;-86
2023/11/21 09:42:23;;;;;;;4.25;1.23;;;;;;;;;;5073997;28;20027;-86
2023/11/21 09:45:14;;;;;;;3.35;1.65;;;;;;;;;;5059850;28;20111;-88
2023/11/21 09:48:00;;;;;;;2.25;1.00;;;;;;;;;;5068378;28;20024;-85
2023/11/21 09:50:47;;;;;;;3.55;1.30;;;;;;;;;;5067650;28;20531;-83
2023/11/21 09:53:34;;;;;;;1.42;1.00;;;;;;;;;;5069977;28;20062;-85
2023/11/21 09:56:23;;;;;;;2.47;1.00;;;;;;;;;;5065604;28;20058;-84
2023/11/21 09:59:12;;;;;;;2.15;0.90;;;;;;;;;;5074130;28;20028;-83
2023/11/21 10:01:58;;;;;;;4.03;1.15;;;;;;;;;;5057367;28;20028;-83
2023/11/21 10:04:43;;;;;;;1.45;1.08;;;;;;;;;;5072972;28;20031;-86
2023/11/21 10:07:29;;;;;;;2.30;1.20;;;;;;;;;;5074499;28;20115;-86
2023/11/21 10:10:16;;;;;;;4.88;1.08;;;;;;;;;;5073329;28;20097;-84
2023/11/21 10:13:06;;;;;;;2.05;0.93;;;;;;;;;;5070560;28;20019;-88
2023/11/21 10:15:51;;;;;;;;;;;;;;;;;;5072159;28;20081;-87
2023/11/21 10:18:39;;;;;;;6.40;1.23;;;;;;;;;;5068094;28;19915;-87
2023/11/21 10:21:25;;;;;;;2.75;1.25;;;;;;;;;;5068370;28;20032;-85
2023/11/21 10:24:12;;;;;;;3.60;1.65;;;;;;;;;;5065571;28;20012;-86
2023/11/21 10:26:57;;;;;;;2.03;1.08;;;;;;;;;;5075191;28;20072;-85
2023/11/21 10:29:42;;;;;;;0.80;0.80;;;;;;;;;;5073777;28;20045;-86
2023/11/21 10:32:28;;;;;;;1.40;0.80;;;;;;;;;;5077215;28;20039;-84
2023/11/21 10:35:13;;;;;;;2.50;1.08;;;;;;;;;;5071028;28;20430;-87
2023/11/21 10:38:02;;;;;;;1.17;0.90;;;;;;;;;;5073845;28;20111;-87
2023/11/21 10:40:49;;;;;;;1.92;1.30;;;;;;;;;;5069202;28;20443;-86
2023/11/21 10:43:34;;;;;;;1.90;1.15;;;;;;;;;;5066759;28;20077;-86
2023/11/21 10:46:19;;;;;;;2.33;1.08;;;;;;;;;;5069034;28;20062;-87
2023/11/21 10:49:31;;;;;;;1.27;0.88;;;;;;;;;;5066424;28;20081;-84
2023/11/21 10:52:18;;;;;;;2.80;1.23;;;;;;;;;;5075682;28;20533;-84
2023/11/21 10:55:15;;;;;;;2.97;1.25;;;;;;;;;;5067974;28;20045;-86
2023/11/21 10:58:05;;;;;;;1.40;1.10;;;;;;;;;;5070491;28;20027;-84
2023/11/21 11:00:52;;;;;;;2.22;1.30;;;;;;;;;;5078238;28;20024;-82
2023/11/21 11:03:37;;;;;;;2.80;1.35;;;;;;;;;;5073188;28;20500;-85
2023/11/21 11:06:25;;;;;;;2.42;1.15;;;;;;;;;;5082938;28;20085;-92
2023/11/21 11:09:12;;;;;;;4.20;1.55;;;;;;;;;;5075963;28;20058;-87
2023/11/21 11:11:59;;;;;;;2.25;1.20;;;;;;;;;;5062792;28;20023;-86
2023/11/21 11:14:44;;;;;;;1.35;0.93;;;;;;;;;;5066636;28;20074;-88
2023/11/21 11:17:30;;;;;;;0.95;0.93;;;;;;;;;;5074999;28;20481;-85
2023/11/21 11:20:17;;;;;;;2.03;0.95;;;;;;;;;;5069581;28;20024;-87
2023/11/21 11:23:08;;;;;;;1.23;0.98;;;;;;;;;;5077778;28;20694;-87
2023/11/21 11:26:06;;;;;;;2.67;1.15;;;;;;;;;;5076935;28;20031;-86
2023/11/21 11:28:55;;;;;;;2.63;1.30;;;;;;;;;;5076862;28;20070;-85
2023/11/21 11:31:40;;;;;;;;;;;;;;;;;;5069529;28;20110;-87
2023/11/21 11:34:32;;;;;;;1.85;1.02;;;;;;;;;;5073675;28;19923;-87
2023/11/21 11:37:18;;;;;;;4.95;1.48;;;;;;;;;;5072504;28;20073;-89
2023/11/21 11:40:06;;;;;;;2.83;2.28;;;;;;;;;;5073080;28;20386;-89
2023/11/21 11:43:02;;;;;;;3.83;1.30;;;;;;;;;;5068306;28;20086;-87
2023/11/21 11:45:51;;;;;;;2.05;0.80;;;;;;;;;;5078568;28;20379;-87
2023/11/21 11:48:40;;;;;;;1.27;1.02;;;;;;;;;;5071255;28;20028;-87
2023/11/21 11:51:25;;;;;;;3.80;1.50;;;;;;;;;;5073486;28;20049;-88
2023/11/21 11:54:13;;;;;;;2.35;1.40;;;;;;;;;;5069999;28;20085;-87
2023/11/21 11:56:58;;;;;;;1.80;1.10;;;;;;;;;;5076049;28;20036;-87
2023/11/21 12:00:15;;;;;;;1.90;1.42;;;;;;;;;;5070548;28;20024;-87
2023/11/21 12:03:05;;;;;;;2.35;0.82;;;;;;;;;;5053790;28;20048;-85
2023/11/21 12:05:52;;;;;;;1.42;0.85;;;;;;;;;;5086215;28;20089;-86
2023/11/21 12:08:38;;;;;;;1.00;0.90;;;;;;;;;;5071604;28;20123;-85
2023/11/21 12:11:30;;;;;;;1.77;0.88;;;;;;;;;;5076696;28;20117;-87
2023/11/21 12:14:15;;;;;;;1.02;0.77;;;;;;;;;;5074445;28;20043;-86
2023/11/21 12:17:02;;;;;;;1.45;1.02;;;;;;;;;;5071282;28;20016;-87
2023/11/21 12:19:47;;;;;;;2.60;1.10;;;;;;;;;;5072249;28;20015;-89
2023/11/21 12:22:32;;;;;;;1.10;1.00;;;;;;;;;;5059914;28;20035;-90
2023/11/21 12:25:19;;;;;;;0.88;0.88;;;;;;;;;;5071395;28;20028;-91
2023/11/21 12:28:05;;;;;;;1.20;1.00;;;;;;;;;;5079495;28;20031;-90
2023/11/21 12:30:50;;;;;;;2.70;1.27;;;;;;;;;;5067138;28;20482;-91
2023/11/21 12:33:36;;;;;;;2.25;1.40;;;;;;;;;;5077434;28;20050;-87
2023/11/21 12:36:21;;;;;;;1.70;1.13;;;;;;;;;;5071870;28;20024;-87
2023/11/21 12:39:09;;;;;;;1.95;1.30;;;;;;;;;;5069168;28;20123;-87
2023/11/21 12:41:55;;;;;;;3.47;1.88;;;;;;;;;;5075833;28;20059;-88
2023/11/21 12:44:45;;;;;;;2.80;1.27;;;;;;;;;;5078518;28;20019;-88
2023/11/21 12:47:31;;;;;;;2.25;1.40;;;;;;;;;;5078808;28;20083;-86
2023/11/21 12:50:23;;;;;;;3.65;1.85;;;;;;;;;;5073857;28;20114;-88
2023/11/21 12:53:13;;;;;;;2.55;1.63;;;;;;;;;;5059581;28;20031;-86
2023/11/21 12:55:58;;;;;;;3.22;1.40;;;;;;;;;;5076194;28;20031;-86
2023/11/21 12:58:46;;;;;;;2.25;1.30;;;;;;;;;;5072640;28;20023;-86
2023/11/21 13:01:32;;;;;;;1.67;1.02;;;;;;;;;;5075075;28;20082;-92
2023/11/21 13:04:18;;;;;;;1.98;1.40;;;;;;;;;;5070368;28;20109;-88
2023/11/21 13:07:14;;;;;;;1.45;1.30;;;;;;;;;;5076452;28;20028;-86
2023/11/21 13:09:59;;;;;;;2.10;1.20;;;;;;;;;;5075174;28;20038;-88
2023/11/21 13:12:47;;;;;;;1.27;1.17;;;;;;;;;;5077649;27;20392;-87
2023/11/21 13:15:34;;;;;;;1.30;1.20;;;;;;;;;;5072383;28;20028;-87
2023/11/21 13:18:21;;;;;;;1.83;1.20;;;;;;;;;;5074162;28;20028;-85
2023/11/21 13:21:12;;;;;;;2.78;1.08;;;;;;;;;;5076488;28;20084;-86
2023/11/21 13:23:57;;;;;;;3.65;1.20;;;;;;;;;;5074883;28;20808;-86
2023/11/21 13:26:42;;;;;;;1.40;1.10;;;;;;;;;;5075997;28;20401;-88
2023/11/21 13:29:29;;;;;;;1.40;1.08;;;;;;;;;;5073680;28;20112;-86
2023/11/21 13:32:16;;;;;;;2.00;1.17;;;;;;;;;;5083495;28;20108;-87
2023/11/21 13:35:01;;;;;;;1.67;0.93;;;;;;;;;;5064765;28;20482;-84
2023/11/21 13:37:48;;;;;;;0.90;0.70;;;;;;;;;;5075607;28;20079;-85
2023/11/21 13:40:39;;;;;;;0.52;0.52;;;;;;;;;;5073636;28;20473;-85
2023/11/21 13:43:25;;;;;;;0.80;0.63;;;;;;;;;;5073567;28;20047;-86
2023/11/21 13:46:16;;;;;;;0.68;0.68;;;;;;;;;;5074882;28;20071;-88
2023/11/21 13:49:02;;;;;;;1.65;0.90;;;;;;;;;;5080921;28;20047;-84
2023/11/21 13:51:52;;;;;;;0.60;0.60;;;;;;;;;;5090685;28;20043;-88
2023/11/21 13:54:37;;;;;;;0.90;0.80;;;;;;;;;;5082791;28;20043;-88
2023/11/21 13:57:23;;;;;;;1.90;1.45;;;;;;;;;;5074599;28;20078;-87
2023/11/21 14:00:16;;;;;;;1.83;0.90;;;;;;;;;;5078145;28;20028;-89
2023/11/21 14:03:05;;;;;;;2.72;1.10;;;;;;;;;;5073218;28;20031;-89
2023/11/21 14:05:51;;;;;;;0.95;0.80;;;;;;;;;;5066332;28;20482;-89
2023/11/21 14:08:36;;;;;;;1.13;1.00;;;;;;;;;;5070498;28;20032;-87
2023/11/21 14:11:22;;;;;;;2.90;1.15;;;;;;;;;;5067329;28;20028;-87
2023/11/21 14:14:07;;;;;;;1.50;1.23;;;;;;;;;;5072731;28;20039;-88
2023/11/21 14:16:52;;;;;;;1.80;1.10;;;;;;;;;;5071721;28;20031;-87
2023/11/21 14:19:42;;;;;;;2.72;1.20;;;;;;;;;;5090032;28;20066;-89
2023/11/21 14:22:31;;;;;;;2.40;1.40;;;;;;;;;;5070768;28;20036;-84
2023/11/21 14:25:17;;;;;;;3.08;1.48;;;;;;;;;;5072846;28;20028;-87
2023/11/21 14:28:03;;;;;;;2.13;1.52;;;;;;;;;;5075989;28;20111;-86
2023/11/21 14:30:52;;;;;;;2.40;1.20;;;;;;;;;;5060195;28;20027;-89
2023/11/21 14:33:37;;;;;;;1.73;1.30;;;;;;;;;;5066429;28;20139;-87
2023/11/21 14:36:23;;;;;;;1.63;1.33;;;;;;;;;;5081092;28;20043;-91
2023/11/21 14:39:18;;;;;;;3.35;1.52;;;;;;;;;;5074531;28;20027;-89
2023/11/21 14:42:07;;;;;;;2.63;1.50;;;;;;;;;;5068528;28;20066;-89
2023/11/21 14:44:55;;;;;;;2.20;1.80;;;;;;;;;;5079515;28;20103;-87
2023/11/21 14:47:45;;;;;;;2.85;1.70;;;;;;;;;;5075854;28;20027;-87
2023/11/21 14:53:42;;;;;;;3.38;1.50;;;;;;;;;;5073749;28;20425;-85
2023/11/21 14:56:33;;;;;;;2.50;1.65;;;;;;;;;;5074935;28;20027;-88
2023/11/21 14:59:18;;;;;;;2.72;1.60;;;;;;;;;;5069629;28;20023;-83
2023/11/21 15:02:20;;;;;;;2.08;1.60;;;;;;;;;;5064312;28;20085;-86
2023/11/21 15:05:08;;;;;;;2.28;1.73;;;;;;;;;;5066846;28;20038;-87
2023/11/21 15:07:56;;;;;;;2.95;1.58;;;;;;;;;;5068999;28;20035;-88
2023/11/21 15:10:53;;;;;;;3.38;1.98;;;;;;;;;;5066629;28;20486;-86
2023/11/21 15:13:38;;;;;;;3.28;1.70;;;;;;;;;;5073479;28;20035;-85
2023/11/21 15:16:23;;;;;;;2.72;1.70;;;;;;;;;;5078473;28;20036;-85
2023/11/21 15:19:09;;;;;;;2.72;1.95;;;;;;;;;;5069792;28;20012;-85
2023/11/21 15:21:54;;;;;;;7.35;2.10;;;;;;;;;;5068010;28;20020;-85
2023/11/21 15:24:41;;;;;;;4.95;1.85;;;;;;;;;;5070037;28;20028;-86
2023/11/21 15:27:27;;;;;;;3.22;2.15;;;;;;;;;;5065513;28;20031;-85
2023/11/21 15:30:12;;;;;;;3.63;2.00;;;;;;;;;;5072896;28;21436;-87
2023/11/21 15:33:01;;;;;;;6.20;3.20;;;;;;;;;;5071246;28;20048;-86
2023/11/21 15:35:46;;;;;;;7.00;1.92;;;;;;;;;;5069891;28;20130;-86
2023/11/21 15:38:31;;;;;;;5.03;2.70;;;;;;;;;;5072415;28;20028;-88
2023/11/21 15:41:17;;;;;;;5.85;2.72;;;;;;;;;;5075752;28;20367;-90
2023/11/21 15:44:04;;;;;;;3.45;2.50;;;;;;;;;;5070075;28;20040;-90
2023/11/21 15:46:49;;;;;;;5.85;2.85;;;;;;;;;;5069757;28;20066;-88
2023/11/21 15:49:36;;;;;;;5.35;3.08;;;;;;;;;;5072476;28;20042;-84
2023/11/21 15:52:21;;;;;;;4.95;2.75;;;;;;;;;;5066664;28;20030;-85
2023/11/21 15:55:08;;;;;;;4.60;2.53;;;;;;;;;;5067994;28;20073;-86
2023/11/21 15:57:53;;;;;;;5.25;2.92;;;;;;;;;;5068321;28;20085;-86
2023/11/21 16:00:39;;;;;;;8.25;3.53;;;;;;;;;;5068673;28;20052;-86
2023/11/21 16:03:24;;;;;;;5.75;3.35;;;;;;;;;;5088166;28;20018;-86
2023/11/21 16:06:11;;;;;;;4.63;3.65;;;;;;;;;;5092113;28;20054;-86
2023/11/21 16:08:58;;;;;;;7.40;3.25;;;;;;;;;;5102744;28;20050;-88
2023/11/21 16:11:43;;;;;;;5.78;2.90;;;;;;;;;;5096337;28;20016;-87
2023/11/21 16:14:35;;;;;;;5.72;3.85;;;;;;;;;;5098601;28;20034;-88
2023/11/21 16:17:23;;;;;;;9.50;3.28;;;;;;;;;;5076793;27;20073;-88
2023/11/21 16:20:10;;;;;;;5.80;3.35;;;;;;;;;;5083165;28;20059;-87
2023/11/21 16:22:56;;;;;;;4.85;3.00;;;;;;;;;;5077723;28;20039;-87
2023/11/21 16:25:41;;;;;;;6.93;3.45;;;;;;;;;;5057568;28;20108;-89
2023/11/21 16:28:26;;;;;;;11.07;3.33;;;;;;;;;;5075075;28;20028;-86
2023/11/21 16:31:11;;;;;;;7.00;3.70;;;;;;;;;;5074234;28;20023;-87
2023/11/21 16:33:57;;;;;;;5.85;3.22;;;;;;;;;;5074429;28;20036;-90
2023/11/21 16:36:42;;;;;;;6.25;3.63;;;;;;;;;;5080070;28;20027;-88
2023/11/21 16:39:27;;;;;;;8.52;4.22;;;;;;;;;;5077611;28;20053;-91
2023/11/21 16:42:13;;;;;;;6.00;3.75;;;;;;;;;;5079852;28;20023;-90